createdAt,value
2019-05-25T00:00:27.446Z,9.00
2019-05-25T00:02:57.359Z,7.80
2019-05-25T00:05:26.966Z,9.17
2019-05-25T00:07:57.745Z,12.00
2019-05-25T00:10:27.421Z,6.13
2019-05-25T00:12:57.146Z,11.10
2019-05-25T00:15:26.782Z,7.73
2019-05-25T00:17:56.547Z,8.67
2019-05-25T00:20:26.182Z,9.73
2019-05-25T00:22:55.776Z,9.57
2019-05-25T00:25:25.405Z,6.23
2019-05-25T00:27:55.016Z,7.23
2019-05-25T00:30:24.776Z,6.57
2019-05-25T00:32:54.539Z,3.57
2019-05-25T00:35:24.292Z,8.97
2019-05-25T00:37:53.924Z,3.40
2019-05-25T00:40:23.567Z,6.77
2019-05-25T00:42:53.183Z,6.73
2019-05-25T00:45:22.991Z,4.10
2019-05-25T00:47:52.667Z,4.43
2019-05-25T00:50:22.298Z,5.53
2019-05-25T00:52:51.905Z,5.23
2019-05-25T00:55:21.555Z,5.17
2019-05-25T00:57:51.169Z,6.17
2019-05-25T01:06:10.798Z,5.37
2019-05-25T01:08:40.513Z,5.40
2019-05-25T01:11:10.134Z,6.57
2019-05-25T01:13:39.738Z,5.50
2019-05-25T01:16:10.298Z,3.60
2019-05-25T01:18:40.006Z,12.73
2019-05-25T01:21:09.637Z,5.07
2019-05-25T01:23:39.231Z,5.80
2019-05-25T01:26:08.898Z,6.40
2019-05-25T01:28:38.511Z,5.70
2019-05-25T01:31:08.185Z,12.43
2019-05-25T01:33:37.778Z,7.23
2019-05-25T01:36:07.385Z,5.13
2019-05-25T01:38:37.364Z,9.23
2019-05-25T01:41:07.000Z,6.37
2019-05-25T01:43:36.586Z,6.63
2019-05-25T01:46:06.202Z,6.67
2019-05-25T01:48:36.021Z,4.63
2019-05-25T01:51:05.648Z,5.27
2019-05-25T01:53:35.271Z,5.03
2019-05-25T01:56:04.877Z,14.33
2019-05-25T01:58:34.475Z,5.27
2019-05-25T02:01:04.162Z,5.93
2019-05-25T02:03:33.754Z,4.27
2019-05-25T02:06:03.383Z,9.53
2019-05-25T02:08:33.239Z,7.57
2019-05-25T02:11:02.850Z,5.97
2019-05-25T02:13:32.458Z,6.83
2019-05-25T02:16:02.168Z,7.27
2019-05-25T02:18:31.762Z,6.23
2019-05-25T02:21:01.370Z,7.77
2019-05-25T02:23:30.982Z,9.10
2019-05-25T02:26:00.598Z,12.93
2019-05-25T02:28:30.197Z,9.10
2019-05-25T02:30:59.803Z,11.87
2019-05-25T02:33:29.402Z,8.37
2019-05-25T02:35:59.002Z,8.73
2019-05-25T02:38:28.649Z,13.50
2019-05-25T02:40:58.239Z,11.27
2019-05-25T02:43:27.843Z,10.63
2019-05-25T02:45:57.543Z,9.43
2019-05-25T02:48:27.261Z,10.10
2019-05-25T02:50:57.058Z,14.83
2019-05-25T02:53:26.757Z,18.27
2019-05-25T02:55:56.390Z,11.67
2019-05-25T02:58:26.082Z,13.43
2019-05-25T03:00:56.150Z,14.80
2019-05-25T03:03:25.937Z,15.77
2019-05-25T03:05:57.560Z,15.10
2019-05-25T03:08:27.335Z,17.63
2019-05-25T03:10:58.639Z,15.83
2019-05-25T03:13:31.714Z,18.13
2019-05-25T03:16:01.359Z,15.63
2019-05-25T03:18:31.051Z,16.87
2019-05-25T03:21:00.688Z,18.67
2019-05-25T03:23:30.452Z,16.57
2019-05-25T03:26:00.078Z,16.77
2019-05-25T03:28:29.687Z,15.33
2019-05-25T03:30:59.319Z,15.70
2019-05-25T03:33:29.890Z,16.20
2019-05-25T03:35:59.535Z,14.77
2019-05-25T03:38:29.362Z,14.37
2019-05-25T03:40:59.194Z,25.43
2019-05-25T03:43:28.813Z,13.40
2019-05-25T03:45:58.426Z,18.03
2019-05-25T03:48:28.063Z,14.57
2019-05-25T03:50:58.337Z,12.73
2019-05-25T03:53:27.994Z,12.50
2019-05-25T03:56:05.756Z,13.57
2019-05-25T03:58:28.926Z,10.93
2019-05-25T04:00:58.619Z,11.60
2019-05-25T04:03:28.230Z,13.97
2019-05-25T04:05:57.845Z,11.03
2019-05-25T04:08:27.467Z,9.73
2019-05-25T04:10:57.070Z,10.83
2019-05-25T04:13:26.656Z,9.07
2019-05-25T04:15:56.283Z,9.57
2019-05-25T04:18:25.894Z,9.27
2019-05-25T04:20:55.519Z,14.83
2019-05-25T04:23:25.131Z,10.53
2019-05-25T04:25:54.726Z,10.70
2019-05-25T04:28:25.467Z,11.83
2019-05-25T04:30:55.104Z,9.50
2019-05-25T04:33:24.713Z,17.73
2019-05-25T04:35:54.511Z,10.93
2019-05-25T04:38:24.116Z,8.73
2019-05-25T04:40:54.806Z,10.47
2019-05-25T04:43:24.410Z,10.90
2019-05-25T04:45:54.047Z,9.40
2019-05-25T04:48:23.655Z,7.93
2019-05-25T04:51:12.670Z,7.80
2019-05-25T04:53:42.252Z,8.27
2019-05-25T04:56:11.871Z,6.80
2019-05-25T04:58:41.494Z,10.37
2019-05-25T05:01:11.115Z,13.47
2019-05-25T05:03:40.732Z,7.17
2019-05-25T05:06:11.306Z,9.30
2019-05-25T05:08:40.915Z,8.40
2019-05-25T05:11:10.703Z,13.30
2019-05-25T05:13:40.328Z,7.57
2019-05-25T05:16:09.924Z,7.70
2019-05-25T05:18:39.529Z,8.57
2019-05-25T05:21:09.126Z,10.93
2019-05-25T05:23:38.745Z,7.90
2019-05-25T05:26:09.546Z,5.73
2019-05-25T05:28:39.158Z,14.80
2019-05-25T05:31:22.787Z,8.83
2019-05-25T05:33:40.263Z,10.90
2019-05-25T05:36:12.009Z,12.50
2019-05-25T05:38:42.546Z,10.90
2019-05-25T05:41:13.014Z,8.50
2019-05-25T05:43:45.251Z,7.20
2019-05-25T05:46:16.999Z,4.67
2019-05-25T05:48:50.496Z,11.87
2019-05-25T05:51:21.487Z,6.07
2019-05-25T05:53:55.691Z,11.33
2019-05-25T05:56:25.298Z,7.60
2019-05-25T05:58:56.018Z,8.33
2019-05-25T06:01:26.730Z,7.27
2019-05-25T06:03:56.443Z,10.77
2019-05-25T06:06:26.062Z,7.53
2019-05-25T06:08:55.663Z,4.63
2019-05-25T06:11:25.262Z,8.47
2019-05-25T06:13:54.934Z,5.50
2019-05-25T06:16:24.536Z,5.53
2019-05-25T06:18:54.142Z,9.03
2019-05-25T06:21:23.754Z,5.67
2019-05-25T06:23:53.462Z,5.80
2019-05-25T06:26:23.183Z,5.83
2019-05-25T06:28:52.877Z,7.73
2019-05-25T06:31:22.582Z,5.17
2019-05-25T06:33:52.179Z,5.37
2019-05-25T06:36:21.798Z,8.83
2019-05-25T06:38:51.633Z,3.67
2019-05-25T06:41:21.222Z,2.93
2019-05-25T06:43:50.821Z,7.67
2019-05-25T06:46:20.488Z,4.50
2019-05-25T06:48:50.109Z,5.87
2019-05-25T06:51:19.711Z,7.23
2019-05-25T06:53:49.333Z,9.00
2019-05-25T06:56:19.027Z,7.27
2019-05-25T06:58:48.639Z,4.40
2019-05-25T07:01:18.247Z,7.63
2019-05-25T07:03:47.867Z,8.03
2019-05-25T07:06:17.480Z,8.40
2019-05-25T07:08:47.182Z,14.30
2019-05-25T07:11:16.861Z,6.87
2019-05-25T07:13:46.500Z,10.63
2019-05-25T07:16:16.098Z,8.43
2019-05-25T07:18:45.762Z,10.50
2019-05-25T07:21:15.508Z,14.13
2019-05-25T07:23:45.162Z,15.07
2019-05-25T07:26:14.772Z,11.50
2019-05-25T07:28:44.454Z,12.00
2019-05-25T07:31:14.098Z,10.90
2019-05-25T07:33:43.736Z,12.93
2019-05-25T07:36:13.403Z,13.90
2019-05-25T07:38:43.098Z,11.07
2019-05-25T07:41:12.714Z,11.47
2019-05-25T07:43:42.298Z,17.17
2019-05-25T07:46:11.939Z,13.27
2019-05-25T07:48:41.610Z,17.20
2019-05-25T07:51:11.272Z,20.63
2019-05-25T07:53:40.885Z,16.43
2019-05-25T07:56:10.483Z,12.43
2019-05-25T07:58:40.090Z,13.60
2019-05-25T08:01:09.719Z,16.40
2019-05-25T08:03:39.980Z,11.27
2019-05-25T08:06:09.814Z,12.43
2019-05-25T08:08:39.523Z,13.60
2019-05-25T08:11:09.275Z,13.93
2019-05-25T08:13:38.914Z,13.77
2019-05-25T08:16:08.549Z,14.17
2019-05-25T08:18:38.188Z,15.37
2019-05-25T08:21:07.863Z,13.60
2019-05-25T08:23:37.491Z,13.07
2019-05-25T08:26:07.120Z,16.47
2019-05-25T08:28:36.752Z,14.13
2019-05-25T08:31:06.410Z,17.50
2019-05-25T08:33:36.102Z,13.83
2019-05-25T08:36:05.808Z,14.07
2019-05-25T08:38:35.486Z,15.90
2019-05-25T08:41:05.113Z,14.33
2019-05-25T08:43:34.832Z,15.17
2019-05-25T08:46:04.566Z,14.70
2019-05-25T08:48:34.181Z,13.53
2019-05-25T08:51:03.888Z,14.13
2019-05-25T08:53:41.662Z,15.90
2019-05-25T08:56:04.931Z,14.57
2019-05-25T08:58:47.461Z,10.00
2019-05-25T09:01:05.894Z,11.37
2019-05-25T09:03:35.527Z,12.63
2019-05-25T09:06:05.195Z,12.93
2019-05-25T09:08:34.804Z,9.47
2019-05-25T09:11:04.590Z,16.43
2019-05-25T09:13:34.230Z,9.60
2019-05-25T09:16:03.976Z,13.73
2019-05-25T09:18:33.618Z,13.43
2019-05-25T09:21:03.222Z,11.20
2019-05-25T09:23:32.847Z,9.43
2019-05-25T09:26:02.450Z,9.33
2019-05-25T09:28:32.094Z,7.97
2019-05-25T09:31:01.687Z,10.40
2019-05-25T09:33:31.307Z,7.37
2019-05-25T09:36:00.980Z,8.90
2019-05-25T09:38:30.566Z,7.23
2019-05-25T09:41:00.184Z,7.73
2019-05-25T09:43:29.790Z,7.27
2019-05-25T09:45:59.430Z,10.17
2019-05-25T09:48:29.043Z,9.30
2019-05-25T09:51:15.293Z,13.23
2019-05-25T09:53:40.509Z,8.07
2019-05-25T09:56:10.118Z,12.20
2019-05-25T09:58:39.741Z,12.27
2019-05-25T10:01:09.458Z,10.70
2019-05-25T10:03:39.169Z,10.13
2019-05-25T10:06:12.946Z,12.07
2019-05-25T10:08:40.471Z,8.73
2019-05-25T10:11:10.102Z,7.70
2019-05-25T10:13:39.738Z,8.60
2019-05-25T10:16:09.409Z,9.63
2019-05-25T10:18:39.038Z,5.80
2019-05-25T10:21:08.655Z,5.63
2019-05-25T10:23:38.287Z,10.63
2019-05-25T10:26:07.988Z,5.83
2019-05-25T10:28:37.609Z,6.23
2019-05-25T10:31:07.225Z,5.40
2019-05-25T10:33:36.914Z,5.63
2019-05-25T10:36:06.681Z,5.57
2019-05-25T10:38:36.313Z,6.10
2019-05-25T10:41:06.251Z,6.53
2019-05-25T10:43:35.887Z,8.70
2019-05-25T10:46:05.562Z,6.80
2019-05-25T10:48:35.202Z,7.53
2019-05-25T10:51:04.938Z,5.13
2019-05-25T10:53:35.527Z,6.00
2019-05-25T10:56:05.373Z,12.00
2019-05-25T10:58:35.039Z,5.97
2019-05-25T11:01:04.750Z,6.13
2019-05-25T11:03:34.425Z,5.37
2019-05-25T11:06:04.031Z,4.83
2019-05-25T11:08:33.638Z,5.33
2019-05-25T11:11:03.355Z,7.07
2019-05-25T11:13:32.975Z,10.37
2019-05-25T11:16:02.591Z,6.97
2019-05-25T11:18:32.195Z,11.33
2019-05-25T11:21:01.799Z,6.50
2019-05-25T11:23:31.435Z,7.90
2019-05-25T11:26:01.175Z,5.30
2019-05-25T11:28:30.788Z,7.47
2019-05-25T11:31:00.409Z,6.27
2019-05-25T11:33:30.003Z,9.07
2019-05-25T11:35:59.647Z,6.70
2019-05-25T11:38:29.367Z,7.47
2019-05-25T11:40:58.954Z,8.40
2019-05-25T11:43:28.558Z,5.87
2019-05-25T11:45:58.176Z,5.53
2019-05-25T11:48:27.795Z,9.07
2019-05-25T11:50:58.358Z,4.70
2019-05-25T11:53:27.974Z,6.30
2019-05-25T11:55:57.730Z,6.00
2019-05-25T11:58:27.342Z,7.23
2019-05-25T12:00:57.086Z,6.70
2019-05-25T12:03:26.766Z,4.40
2019-05-25T12:05:56.378Z,5.60
2019-05-25T12:08:25.995Z,6.23
2019-05-25T12:10:55.630Z,6.30
2019-05-25T12:13:25.215Z,11.73
2019-05-25T12:15:54.876Z,4.17
2019-05-25T12:18:24.565Z,5.73
2019-05-25T12:20:54.202Z,10.97
2019-05-25T12:23:23.836Z,9.37
2019-05-25T12:25:53.473Z,4.87
2019-05-25T12:28:23.157Z,4.30
2019-05-25T12:30:52.768Z,6.47
2019-05-25T12:33:23.358Z,5.33
2019-05-25T12:35:52.971Z,7.93
2019-05-25T12:38:22.581Z,4.50
2019-05-25T12:40:53.902Z,7.63
2019-05-25T12:43:23.522Z,4.93
2019-05-25T12:45:53.168Z,7.50
2019-05-25T12:48:22.779Z,5.20
2019-05-25T12:50:52.547Z,6.10
2019-05-25T12:53:22.139Z,3.73
2019-05-25T12:55:51.919Z,6.77
2019-05-25T12:58:23.713Z,4.00
2019-05-25T13:00:56.077Z,9.13
2019-05-25T13:03:24.286Z,2.70
2019-05-25T13:05:54.186Z,6.70
2019-05-25T13:08:23.814Z,5.30
2019-05-25T13:10:53.419Z,5.00
2019-05-25T13:13:23.086Z,9.20
2019-05-25T13:15:52.697Z,8.23
2019-05-25T13:18:22.387Z,6.97
2019-05-25T13:20:52.095Z,5.63
2019-05-25T13:23:21.714Z,7.97
2019-05-25T13:25:51.365Z,10.60
2019-05-25T13:28:21.584Z,8.33
2019-05-25T13:30:51.255Z,8.13
2019-05-25T13:33:20.880Z,7.33
2019-05-25T13:35:50.526Z,8.60
2019-05-25T13:38:20.146Z,8.90
2019-05-25T13:40:49.748Z,6.97
2019-05-25T13:43:19.550Z,7.92
2019-05-25T13:45:50.121Z,6.62
2019-05-25T13:48:19.739Z,6.28
2019-05-25T13:50:49.337Z,6.90
2019-05-25T13:53:18.941Z,12.20
2019-05-25T13:55:48.645Z,6.80
2019-05-25T13:58:18.252Z,3.93
2019-05-25T14:00:48.170Z,4.53
2019-05-25T14:03:17.781Z,4.40
2019-05-25T14:05:47.402Z,6.07
2019-05-25T14:08:17.106Z,3.10
2019-05-25T14:10:46.709Z,6.70
2019-05-25T14:13:16.352Z,8.20
2019-05-25T14:15:45.982Z,3.63
2019-05-25T14:18:15.587Z,5.90
2019-05-25T14:20:45.192Z,2.83
2019-05-25T14:23:14.806Z,13.13
2019-05-25T14:25:44.414Z,4.75
2019-05-25T14:28:14.019Z,6.30
2019-05-25T14:30:43.648Z,4.50
2019-05-25T14:33:13.256Z,3.58
2019-05-25T14:35:42.935Z,4.22
2019-05-25T14:38:12.563Z,3.45
2019-05-25T14:40:42.184Z,7.83
2019-05-25T14:43:11.815Z,7.78
2019-05-25T14:45:41.614Z,8.20
2019-05-25T14:48:11.218Z,3.40
2019-05-25T14:50:41.576Z,3.37
2019-05-25T14:53:11.188Z,2.60
2019-05-25T14:55:41.896Z,2.00
2019-05-25T14:58:12.950Z,4.45
2019-05-25T15:00:42.790Z,4.20
2019-05-25T15:03:12.466Z,3.83
2019-05-25T15:05:43.060Z,5.17
2019-05-25T15:08:12.746Z,2.80
2019-05-25T15:10:42.467Z,1.63
2019-05-25T15:13:12.102Z,3.73
2019-05-25T15:15:41.783Z,3.93
2019-05-25T15:18:11.382Z,3.73
2019-05-25T15:20:40.994Z,2.73
2019-05-25T15:23:10.677Z,3.47
2019-05-25T15:25:40.293Z,2.17
2019-05-25T15:28:09.998Z,4.07
2019-05-25T15:30:39.770Z,2.13
2019-05-25T15:33:09.525Z,3.50
2019-05-25T15:35:39.115Z,4.30
2019-05-25T15:38:08.939Z,2.23
2019-05-25T15:40:39.212Z,1.93
2019-05-25T15:43:08.954Z,3.13
2019-05-25T15:45:38.569Z,3.37
2019-05-25T15:48:08.217Z,3.00
2019-05-25T15:50:38.794Z,2.60
2019-05-25T15:53:08.623Z,2.13
2019-05-25T15:55:38.407Z,3.37
2019-05-25T15:58:08.051Z,1.30
2019-05-25T16:00:46.228Z,4.77
2019-05-25T16:03:16.762Z,2.43
2019-05-25T16:05:47.683Z,2.53
2019-05-25T16:08:18.426Z,2.20
2019-05-25T16:10:48.332Z,9.47
2019-05-25T16:13:18.077Z,2.90
2019-05-25T16:15:47.742Z,6.07
2019-05-25T16:18:17.375Z,2.90
2019-05-25T16:20:47.979Z,4.10
2019-05-25T16:23:17.647Z,3.47
2019-05-25T16:25:47.267Z,3.20
2019-05-25T16:28:16.892Z,7.50
2019-05-25T16:30:47.656Z,2.60
2019-05-25T16:33:17.275Z,4.47
2019-05-25T16:35:46.886Z,3.10
2019-05-25T16:38:16.524Z,4.70
2019-05-25T16:40:46.322Z,6.80
2019-05-25T16:43:16.279Z,4.53
2019-05-25T16:45:45.906Z,3.07
2019-05-25T16:48:15.516Z,1.73
2019-05-25T16:50:45.137Z,6.50
2019-05-25T16:53:14.740Z,2.20
2019-05-25T16:55:44.396Z,3.53
2019-05-25T16:58:14.050Z,2.20
2019-05-25T17:00:43.690Z,3.17
2019-05-25T17:03:26.843Z,1.63
2019-05-25T17:05:44.638Z,4.43
2019-05-25T17:08:14.235Z,3.27
2019-05-25T17:10:43.938Z,2.10
2019-05-25T17:13:13.742Z,1.73
2019-05-25T17:15:44.121Z,3.40
2019-05-25T17:18:13.735Z,3.83
2019-05-25T17:20:43.371Z,2.53
2019-05-25T17:23:12.981Z,5.70
2019-05-25T17:25:42.609Z,5.17
2019-05-25T17:28:12.221Z,8.30
2019-05-25T17:30:43.877Z,2.47
2019-05-25T17:33:13.854Z,5.00
2019-05-25T17:35:43.649Z,2.20
2019-05-25T17:38:13.514Z,4.17
2019-05-25T17:40:43.176Z,2.33
2019-05-25T17:43:13.810Z,2.73
2019-05-25T17:45:43.426Z,2.53
2019-05-25T17:48:13.039Z,2.30
2019-05-25T17:50:42.664Z,2.73
2019-05-25T17:53:12.289Z,4.50
2019-05-25T17:55:41.969Z,2.67
2019-05-25T17:58:11.735Z,2.30
2019-05-25T18:00:43.704Z,3.97
2019-05-25T18:03:13.616Z,4.30
2019-05-25T18:05:43.429Z,2.50
2019-05-25T18:08:13.178Z,2.77
2019-05-25T18:10:52.635Z,2.43
2019-05-25T18:13:14.333Z,2.83
2019-05-25T18:15:44.018Z,2.40
2019-05-25T18:18:13.683Z,6.47
2019-05-25T18:20:43.463Z,2.47
2019-05-25T18:23:13.213Z,1.93
2019-05-25T18:25:42.905Z,2.30
2019-05-25T18:28:12.546Z,1.67
2019-05-25T18:30:42.247Z,6.17
2019-05-25T18:33:11.958Z,3.73
2019-05-25T18:35:41.570Z,1.97
2019-05-25T18:38:11.262Z,1.53
2019-05-25T18:40:40.872Z,2.37
2019-05-25T18:43:10.582Z,3.17
2019-05-25T18:45:40.216Z,3.50
2019-05-25T18:48:09.823Z,2.13
2019-05-25T18:50:39.454Z,3.23
2019-05-25T18:53:09.067Z,2.23
2019-05-25T18:55:38.694Z,3.13
2019-05-25T18:58:08.419Z,1.53
2019-05-25T19:00:38.034Z,2.43
2019-05-25T19:03:07.737Z,2.60
2019-05-25T19:05:37.423Z,3.50
2019-05-25T19:08:07.319Z,5.40
2019-05-25T19:10:36.947Z,1.50
2019-05-25T19:13:06.630Z,3.53
2019-05-25T19:15:36.399Z,2.23
2019-05-25T19:18:06.097Z,7.67
2019-05-25T19:20:35.763Z,6.90
2019-05-25T19:23:05.510Z,4.37
2019-05-25T19:25:35.123Z,4.40
2019-05-25T19:28:04.718Z,3.37
2019-05-25T19:30:34.391Z,2.97
2019-05-25T19:33:04.419Z,4.07
2019-05-25T19:35:34.081Z,4.17
2019-05-25T19:38:03.878Z,6.20
2019-05-25T19:40:33.502Z,6.13
2019-05-25T19:43:03.107Z,3.57
2019-05-25T19:45:33.094Z,5.87
2019-05-25T19:48:02.795Z,7.27
2019-05-25T19:50:32.418Z,4.83
2019-05-25T19:53:02.039Z,5.10
2019-05-25T19:55:31.658Z,7.57
2019-05-25T19:58:01.316Z,9.90
2019-05-25T20:00:30.996Z,5.37
2019-05-25T20:03:00.642Z,6.40
2019-05-25T20:05:30.230Z,6.10
2019-05-25T20:07:59.851Z,4.90
2019-05-25T20:10:29.474Z,7.57
2019-05-25T20:13:00.487Z,6.63
2019-05-25T20:15:30.194Z,6.40
2019-05-25T20:17:59.871Z,9.63
2019-05-25T20:20:29.598Z,6.90
2019-05-25T20:22:59.226Z,8.80
2019-05-25T20:25:28.901Z,13.17
2019-05-25T20:27:59.502Z,7.57
2019-05-25T20:30:30.115Z,10.37
2019-05-25T20:32:59.794Z,8.83
2019-05-25T20:35:33.447Z,8.93
2019-05-25T20:38:00.755Z,10.07
2019-05-25T20:40:30.436Z,11.50
2019-05-25T20:43:00.075Z,12.07
2019-05-25T20:45:29.722Z,19.37
2019-05-25T20:47:59.365Z,14.60
2019-05-25T20:50:29.126Z,20.57
2019-05-25T20:52:58.750Z,18.20
2019-05-25T20:55:28.403Z,15.73
2019-05-25T20:57:58.051Z,16.50
2019-05-25T21:00:27.680Z,17.90
2019-05-25T21:03:06.198Z,17.33
2019-05-25T21:05:28.652Z,17.57
2019-05-25T21:07:58.289Z,18.07
2019-05-25T21:10:27.971Z,19.17
2019-05-25T21:12:57.655Z,19.47
2019-05-25T21:15:28.286Z,20.40
2019-05-25T21:17:57.993Z,21.33
2019-05-25T21:20:27.645Z,21.10
2019-05-25T21:22:57.296Z,24.00
2019-05-25T21:25:27.098Z,23.03
2019-05-25T21:27:56.746Z,26.60
2019-05-25T21:30:26.450Z,25.37
2019-05-25T21:32:56.062Z,24.57
2019-05-25T21:35:25.694Z,29.37
2019-05-25T21:37:55.367Z,24.33
2019-05-25T21:40:24.985Z,30.97
2019-05-25T21:42:54.659Z,26.30
2019-05-25T21:45:24.280Z,34.43
2019-05-25T21:47:56.295Z,29.37
2019-05-25T21:50:25.296Z,30.17
2019-05-25T21:52:54.914Z,33.57
2019-05-25T21:55:24.510Z,34.23
2019-05-25T21:57:54.128Z,33.70
2019-05-25T22:00:27.135Z,36.13
2019-05-25T22:02:58.419Z,37.30
2019-05-25T22:05:30.719Z,38.00
2019-05-25T22:07:59.379Z,39.47
2019-05-25T22:10:29.075Z,44.57
2019-05-25T22:12:58.715Z,38.27
2019-05-25T22:15:28.329Z,39.73
2019-05-25T22:17:57.945Z,40.67
2019-05-25T22:20:27.543Z,41.10
2019-05-25T22:22:57.171Z,44.57
2019-05-25T22:25:26.789Z,46.57
2019-05-25T22:27:56.468Z,47.70
2019-05-25T22:30:26.247Z,50.50
2019-05-25T22:32:56.038Z,48.40
2019-05-25T22:35:25.746Z,49.97
2019-05-25T22:37:55.377Z,52.67
2019-05-25T22:40:25.047Z,51.63
2019-05-25T22:42:54.646Z,53.27
2019-05-25T22:45:24.394Z,60.83
2019-05-25T22:47:54.031Z,62.50
2019-05-25T22:50:23.710Z,65.83
2019-05-25T22:52:53.350Z,62.03
2019-05-25T22:55:22.958Z,59.43
2019-05-25T22:57:52.575Z,62.30
2019-05-25T23:00:22.357Z,65.23
2019-05-25T23:02:52.005Z,63.87
2019-05-25T23:05:22.923Z,59.03
2019-05-25T23:07:52.617Z,61.97
2019-05-25T23:10:22.461Z,66.33
2019-05-25T23:12:52.101Z,62.63
2019-05-25T23:15:22.181Z,58.23
2019-05-25T23:17:52.795Z,58.70
2019-05-25T23:20:22.418Z,58.47
2019-05-25T23:22:52.048Z,64.93
2019-05-25T23:25:21.662Z,66.13
2019-05-25T23:27:51.269Z,61.40
2019-05-25T23:30:21.354Z,73.03
2019-05-25T23:32:51.110Z,61.53
2019-05-25T23:35:20.881Z,67.03
2019-05-25T23:37:50.495Z,68.77
2019-05-25T23:40:20.719Z,71.10
2019-05-25T23:42:50.322Z,72.57
2019-05-25T23:45:20.305Z,73.07
2019-05-25T23:47:49.922Z,70.83
2019-05-25T23:50:19.732Z,74.73
2019-05-25T23:52:49.735Z,74.20
2019-05-25T23:55:19.679Z,71.80
2019-05-25T23:57:49.446Z,78.33
